sensor_id;sensor_type;location;lat;lon;timestamp;pressure;altitude;pressure_sealevel;temperature;humidity
20793;BME280;10556;-33.662;151.094;2022-12-10T00:03:16;99473.28;;;19.83;89.41
20793;BME280;10556;-33.662;151.094;2022-12-10T00:08:19;99473.63;;;20.09;89.18
20793;BME280;10556;-33.662;151.094;2022-12-10T00:13:21;99457.31;;;20.28;88.98
20793;BME280;10556;-33.662;151.094;2022-12-10T00:18:26;99464.09;;;20.29;89.05
20793;BME280;10556;-33.662;151.094;2022-12-10T00:23:28;99466.66;;;20.19;90.13
20793;BME280;10556;-33.662;151.094;2022-12-10T00:28:31;99465.28;;;20.06;89.76
20793;BME280;10556;-33.662;151.094;2022-12-10T00:33:36;99459.69;;;19.91;88.73
20793;BME280;10556;-33.662;151.094;2022-12-10T00:38:39;99456.81;;;19.84;89.38
20793;BME280;10556;-33.662;151.094;2022-12-10T00:43:42;99461.06;;;19.85;90.75
20793;BME280;10556;-33.662;151.094;2022-12-10T00:48:47;99451.25;;;19.89;91.24
20793;BME280;10556;-33.662;151.094;2022-12-10T00:53:51;99449.91;;;19.94;92.52
20793;BME280;10556;-33.662;151.094;2022-12-10T00:58:54;99450.31;;;19.99;92.20
20793;BME280;10556;-33.662;151.094;2022-12-10T01:03:59;99446.13;;;20.08;92.55
20793;BME280;10556;-33.662;151.094;2022-12-10T01:09:04;99445.16;;;20.09;92.73
20793;BME280;10556;-33.662;151.094;2022-12-10T01:14:09;99437.41;;;20.09;89.66
20793;BME280;10556;-33.662;151.094;2022-12-10T01:19:14;99441.59;;;20.00;91.70
20793;BME280;10556;-33.662;151.094;2022-12-10T01:24:16;99430.56;;;19.89;93.21
20793;BME280;10556;-33.662;151.094;2022-12-10T01:29:19;99421.28;;;19.86;95.54
20793;BME280;10556;-33.662;151.094;2022-12-10T01:34:24;99419.53;;;19.87;93.07
20793;BME280;10556;-33.662;151.094;2022-12-10T01:39:27;99407.41;;;19.97;95.04
20793;BME280;10556;-33.662;151.094;2022-12-10T01:44:58;99402.25;;;20.07;92.14
20793;BME280;10556;-33.662;151.094;2022-12-10T01:50:04;99394.78;;;20.13;91.47
20793;BME280;10556;-33.662;151.094;2022-12-10T01:55:44;99398.03;;;20.25;93.14
20793;BME280;10556;-33.662;151.094;2022-12-10T02:01:04;99394.09;;;20.21;92.79
20793;BME280;10556;-33.662;151.094;2022-12-10T02:06:17;99392.31;;;20.21;93.51
20793;BME280;10556;-33.662;151.094;2022-12-10T02:11:31;99387.84;;;20.14;93.47
20793;BME280;10556;-33.662;151.094;2022-12-10T02:16:39;99392.44;;;20.00;91.76
20793;BME280;10556;-33.662;151.094;2022-12-10T02:21:46;99375.16;;;20.01;96.11
20793;BME280;10556;-33.662;151.094;2022-12-10T02:26:52;99359.78;;;20.28;97.23
20793;BME280;10556;-33.662;151.094;2022-12-10T02:32:02;99362.06;;;20.60;94.17
20793;BME280;10556;-33.662;151.094;2022-12-10T02:37:08;99353.56;;;20.68;88.79
20793;BME280;10556;-33.662;151.094;2022-12-10T02:42:13;99348.78;;;20.73;89.66
20793;BME280;10556;-33.662;151.094;2022-12-10T02:47:19;99356.59;;;20.63;89.52
20793;BME280;10556;-33.662;151.094;2022-12-10T02:52:24;99352.38;;;20.62;90.01
20793;BME280;10556;-33.662;151.094;2022-12-10T02:57:35;99352.00;;;20.57;89.47
20793;BME280;10556;-33.662;151.094;2022-12-10T03:02:55;99354.69;;;20.65;89.07
20793;BME280;10556;-33.662;151.094;2022-12-10T03:08:05;99339.41;;;20.72;88.42
20793;BME280;10556;-33.662;151.094;2022-12-10T03:13:14;99333.91;;;20.84;90.76
20793;BME280;10556;-33.662;151.094;2022-12-10T03:18:23;99318.25;;;20.76;89.56
20793;BME280;10556;-33.662;151.094;2022-12-10T03:23:27;99335.34;;;20.60;89.17
20793;BME280;10556;-33.662;151.094;2022-12-10T03:28:33;99326.22;;;20.56;91.90
20793;BME280;10556;-33.662;151.094;2022-12-10T03:33:39;99327.19;;;20.45;93.21
20793;BME280;10556;-33.662;151.094;2022-12-10T03:38:43;99321.19;;;20.44;92.10
20793;BME280;10556;-33.662;151.094;2022-12-10T03:43:56;99315.78;;;20.38;92.34
20793;BME280;10556;-33.662;151.094;2022-12-10T03:49:02;99315.38;;;20.42;95.23
20793;BME280;10556;-33.662;151.094;2022-12-10T03:54:05;99304.69;;;20.55;94.95
20793;BME280;10556;-33.662;151.094;2022-12-10T03:59:07;99289.72;;;20.86;96.20
20793;BME280;10556;-33.662;151.094;2022-12-10T04:04:12;99287.19;;;21.31;94.11
20793;BME280;10556;-33.662;151.094;2022-12-10T04:09:15;99292.09;;;21.52;89.53
20793;BME280;10556;-33.662;151.094;2022-12-10T04:14:18;99283.56;;;21.59;88.24
20793;BME280;10556;-33.662;151.094;2022-12-10T04:19:22;99283.00;;;21.48;87.50
20793;BME280;10556;-33.662;151.094;2022-12-10T04:24:26;99282.00;;;21.31;89.70
20793;BME280;10556;-33.662;151.094;2022-12-10T04:29:30;99267.19;;;21.23;90.63
20793;BME280;10556;-33.662;151.094;2022-12-10T04:34:35;99262.44;;;21.19;91.14
20793;BME280;10556;-33.662;151.094;2022-12-10T04:39:38;99254.75;;;21.27;90.78
20793;BME280;10556;-33.662;151.094;2022-12-10T04:44:40;99243.34;;;21.38;91.38
20793;BME280;10556;-33.662;151.094;2022-12-10T04:49:45;99250.44;;;21.36;90.43
20793;BME280;10556;-33.662;151.094;2022-12-10T04:54:47;99224.59;;;21.26;93.46
20793;BME280;10556;-33.662;151.094;2022-12-10T04:59:50;99234.06;;;21.35;92.99
20793;BME280;10556;-33.662;151.094;2022-12-10T05:04:55;99227.94;;;21.18;92.35
20793;BME280;10556;-33.662;151.094;2022-12-10T05:09:57;99218.16;;;21.03;92.55
20793;BME280;10556;-33.662;151.094;2022-12-10T05:15:00;99221.56;;;21.03;92.24
20793;BME280;10556;-33.662;151.094;2022-12-10T05:20:05;99210.28;;;21.22;94.11
20793;BME280;10556;-33.662;151.094;2022-12-10T05:25:08;99204.59;;;21.36;92.15
20793;BME280;10556;-33.662;151.094;2022-12-10T05:30:11;99200.28;;;21.45;89.99
20793;BME280;10556;-33.662;151.094;2022-12-10T05:35:16;99199.19;;;21.29;89.83
20793;BME280;10556;-33.662;151.094;2022-12-10T05:40:18;99202.00;;;21.36;91.86
20793;BME280;10556;-33.662;151.094;2022-12-10T05:45:21;99205.19;;;21.48;90.47
20793;BME280;10556;-33.662;151.094;2022-12-10T05:50:25;99197.19;;;21.41;90.03
20793;BME280;10556;-33.662;151.094;2022-12-10T05:55:28;99198.72;;;21.16;92.07
20793;BME280;10556;-33.662;151.094;2022-12-10T06:00:30;99192.63;;;21.08;93.22
20793;BME280;10556;-33.662;151.094;2022-12-10T06:05:39;99185.22;;;21.13;93.42
20793;BME280;10556;-33.662;151.094;2022-12-10T06:10:42;99174.63;;;21.06;92.44
20793;BME280;10556;-33.662;151.094;2022-12-10T06:15:45;99172.94;;;20.97;94.79
20793;BME280;10556;-33.662;151.094;2022-12-10T06:20:49;99177.13;;;20.80;95.16
20793;BME280;10556;-33.662;151.094;2022-12-10T06:25:52;99166.66;;;20.72;95.49
20793;BME280;10556;-33.662;151.094;2022-12-10T06:30:54;99171.00;;;20.54;96.20
20793;BME280;10556;-33.662;151.094;2022-12-10T06:36:04;99160.72;;;20.35;97.64
20793;BME280;10556;-33.662;151.094;2022-12-10T06:41:08;99161.72;;;20.15;99.60
20793;BME280;10556;-33.662;151.094;2022-12-10T06:46:13;99156.56;;;20.15;100.00
20793;BME280;10556;-33.662;151.094;2022-12-10T06:51:18;99145.47;;;19.95;100.00
20793;BME280;10556;-33.662;151.094;2022-12-10T06:56:21;99154.81;;;20.06;100.00
20793;BME280;10556;-33.662;151.094;2022-12-10T07:01:24;99163.06;;;19.82;100.00
20793;BME280;10556;-33.662;151.094;2022-12-10T07:06:30;99165.94;;;19.79;100.00
20793;BME280;10556;-33.662;151.094;2022-12-10T07:11:33;99165.13;;;19.69;100.00
20793;BME280;10556;-33.662;151.094;2022-12-10T07:16:36;99167.84;;;19.67;100.00
20793;BME280;10556;-33.662;151.094;2022-12-10T07:21:42;99187.19;;;19.53;100.00
20793;BME280;10556;-33.662;151.094;2022-12-10T07:26:46;99186.78;;;19.48;100.00
20793;BME280;10556;-33.662;151.094;2022-12-10T07:31:49;99182.00;;;19.34;100.00
20793;BME280;10556;-33.662;151.094;2022-12-10T07:36:54;99203.59;;;19.24;100.00
20793;BME280;10556;-33.662;151.094;2022-12-10T07:41:56;99201.69;;;19.06;100.00
20793;BME280;10556;-33.662;151.094;2022-12-10T07:46:59;99209.16;;;19.00;100.00
20793;BME280;10556;-33.662;151.094;2022-12-10T07:52:03;99216.34;;;18.87;100.00
20793;BME280;10556;-33.662;151.094;2022-12-10T07:57:06;99216.75;;;18.92;100.00
20793;BME280;10556;-33.662;151.094;2022-12-10T08:02:09;99221.81;;;18.93;100.00
20793;BME280;10556;-33.662;151.094;2022-12-10T08:07:13;99217.53;;;18.73;100.00
20793;BME280;10556;-33.662;151.094;2022-12-10T08:12:16;99226.22;;;18.72;100.00
20793;BME280;10556;-33.662;151.094;2022-12-10T08:17:19;99227.94;;;18.62;100.00
20793;BME280;10556;-33.662;151.094;2022-12-10T08:22:23;99242.59;;;18.61;100.00
20793;BME280;10556;-33.662;151.094;2022-12-10T08:27:26;99223.06;;;18.59;100.00
20793;BME280;10556;-33.662;151.094;2022-12-10T08:32:28;99240.94;;;18.51;100.00
20793;BME280;10556;-33.662;151.094;2022-12-10T08:37:33;99231.66;;;18.48;100.00
20793;BME280;10556;-33.662;151.094;2022-12-10T08:42:35;99228.22;;;18.38;100.00
20793;BME280;10556;-33.662;151.094;2022-12-10T08:47:38;99248.31;;;18.35;100.00
20793;BME280;10556;-33.662;151.094;2022-12-10T08:52:42;99239.19;;;18.30;100.00
20793;BME280;10556;-33.662;151.094;2022-12-10T08:57:45;99237.50;;;18.20;100.00
20793;BME280;10556;-33.662;151.094;2022-12-10T09:02:47;99238.31;;;18.20;100.00
20793;BME280;10556;-33.662;151.094;2022-12-10T09:07:52;99236.94;;;18.16;100.00
20793;BME280;10556;-33.662;151.094;2022-12-10T09:12:55;99243.41;;;18.11;100.00
20793;BME280;10556;-33.662;151.094;2022-12-10T09:17:57;99232.66;;;18.06;100.00
20793;BME280;10556;-33.662;151.094;2022-12-10T09:23:02;99244.19;;;18.02;100.00
20793;BME280;10556;-33.662;151.094;2022-12-10T09:28:04;99244.22;;;17.91;100.00
20793;BME280;10556;-33.662;151.094;2022-12-10T09:33:07;99246.13;;;17.89;100.00
20793;BME280;10556;-33.662;151.094;2022-12-10T09:38:11;99251.78;;;17.82;100.00
20793;BME280;10556;-33.662;151.094;2022-12-10T09:43:19;99252.53;;;17.73;100.00
20793;BME280;10556;-33.662;151.094;2022-12-10T09:48:32;99255.59;;;17.67;100.00
20793;BME280;10556;-33.662;151.094;2022-12-10T09:53:37;99262.88;;;17.62;100.00
20793;BME280;10556;-33.662;151.094;2022-12-10T09:58:40;99259.00;;;17.57;100.00
20793;BME280;10556;-33.662;151.094;2022-12-10T10:03:43;99254.09;;;17.54;100.00
20793;BME280;10556;-33.662;151.094;2022-12-10T10:08:50;99257.63;;;17.53;100.00
20793;BME280;10556;-33.662;151.094;2022-12-10T10:13:56;99253.53;;;17.50;100.00
20793;BME280;10556;-33.662;151.094;2022-12-10T10:19:01;99264.44;;;17.42;100.00
20793;BME280;10556;-33.662;151.094;2022-12-10T10:24:09;99267.94;;;17.41;100.00
20793;BME280;10556;-33.662;151.094;2022-12-10T10:29:17;99273.47;;;17.37;100.00
20793;BME280;10556;-33.662;151.094;2022-12-10T10:34:23;99269.13;;;17.37;100.00
20793;BME280;10556;-33.662;151.094;2022-12-10T10:39:29;99266.56;;;17.37;100.00
20793;BME280;10556;-33.662;151.094;2022-12-10T10:44:35;99275.38;;;17.35;100.00
20793;BME280;10556;-33.662;151.094;2022-12-10T10:49:44;99275.84;;;17.29;100.00
20793;BME280;10556;-33.662;151.094;2022-12-10T10:54:49;99280.88;;;17.30;100.00
20793;BME280;10556;-33.662;151.094;2022-12-10T10:59:54;99278.31;;;17.30;100.00
20793;BME280;10556;-33.662;151.094;2022-12-10T11:04:57;99298.19;;;17.28;100.00
20793;BME280;10556;-33.662;151.094;2022-12-10T11:10:18;99294.94;;;17.26;100.00
20793;BME280;10556;-33.662;151.094;2022-12-10T11:15:34;99296.22;;;17.21;100.00
20793;BME280;10556;-33.662;151.094;2022-12-10T11:20:37;99290.38;;;17.19;100.00
20793;BME280;10556;-33.662;151.094;2022-12-10T11:25:48;99288.03;;;17.16;100.00
20793;BME280;10556;-33.662;151.094;2022-12-10T11:31:03;99276.00;;;17.16;100.00
20793;BME280;10556;-33.662;151.094;2022-12-10T11:36:30;99287.69;;;17.09;100.00
20793;BME280;10556;-33.662;151.094;2022-12-10T11:41:41;99285.13;;;17.09;100.00
20793;BME280;10556;-33.662;151.094;2022-12-10T11:47:04;99284.88;;;17.12;100.00
20793;BME280;10556;-33.662;151.094;2022-12-10T11:52:16;99283.25;;;17.11;100.00
20793;BME280;10556;-33.662;151.094;2022-12-10T11:57:32;99292.84;;;17.09;100.00
20793;BME280;10556;-33.662;151.094;2022-12-10T12:02:58;99284.06;;;17.12;100.00
20793;BME280;10556;-33.662;151.094;2022-12-10T12:08:10;99282.66;;;17.19;100.00
20793;BME280;10556;-33.662;151.094;2022-12-10T12:13:20;99290.25;;;17.20;100.00
20793;BME280;10556;-33.662;151.094;2022-12-10T12:18:30;99276.56;;;17.20;100.00
20793;BME280;10556;-33.662;151.094;2022-12-10T12:23:44;99273.16;;;17.19;100.00
20793;BME280;10556;-33.662;151.094;2022-12-10T12:28:53;99266.63;;;17.15;100.00
20793;BME280;10556;-33.662;151.094;2022-12-10T12:34:01;99258.06;;;17.15;100.00
20793;BME280;10556;-33.662;151.094;2022-12-10T12:39:13;99257.72;;;17.08;100.00
20793;BME280;10556;-33.662;151.094;2022-12-10T12:44:24;99249.78;;;17.00;100.00
20793;BME280;10556;-33.662;151.094;2022-12-10T12:49:31;99239.59;;;16.98;100.00
20793;BME280;10556;-33.662;151.094;2022-12-10T12:54:37;99228.63;;;16.96;100.00
20793;BME280;10556;-33.662;151.094;2022-12-10T12:59:53;99230.38;;;16.96;100.00
20793;BME280;10556;-33.662;151.094;2022-12-10T13:04:59;99237.28;;;16.95;100.00
20793;BME280;10556;-33.662;151.094;2022-12-10T13:10:24;99232.13;;;16.95;100.00
20793;BME280;10556;-33.662;151.094;2022-12-10T13:15:35;99222.66;;;16.96;100.00
20793;BME280;10556;-33.662;151.094;2022-12-10T13:20:44;99226.63;;;16.89;100.00
20793;BME280;10556;-33.662;151.094;2022-12-10T13:25:58;99226.97;;;16.84;100.00
20793;BME280;10556;-33.662;151.094;2022-12-10T13:31:18;99223.72;;;16.82;100.00
20793;BME280;10556;-33.662;151.094;2022-12-10T13:36:24;99221.97;;;16.83;100.00
20793;BME280;10556;-33.662;151.094;2022-12-10T13:41:27;99228.53;;;16.87;100.00
20793;BME280;10556;-33.662;151.094;2022-12-10T13:46:35;99229.44;;;16.86;100.00
20793;BME280;10556;-33.662;151.094;2022-12-10T13:51:57;99239.53;;;16.78;100.00
20793;BME280;10556;-33.662;151.094;2022-12-10T13:57:08;99231.91;;;16.65;100.00
20793;BME280;10556;-33.662;151.094;2022-12-10T14:02:41;99224.19;;;16.54;100.00
20793;BME280;10556;-33.662;151.094;2022-12-10T14:07:50;99211.91;;;16.46;100.00
20793;BME280;10556;-33.662;151.094;2022-12-10T14:12:55;99214.00;;;16.41;100.00
20793;BME280;10556;-33.662;151.094;2022-12-10T14:18:03;99201.63;;;16.35;100.00
20793;BME280;10556;-33.662;151.094;2022-12-10T14:23:23;99196.22;;;16.27;100.00
20793;BME280;10556;-33.662;151.094;2022-12-10T14:28:25;99177.88;;;16.21;100.00
20793;BME280;10556;-33.662;151.094;2022-12-10T14:33:30;99176.81;;;16.12;100.00
20793;BME280;10556;-33.662;151.094;2022-12-10T14:38:34;99170.41;;;16.06;100.00
20793;BME280;10556;-33.662;151.094;2022-12-10T14:43:38;99164.53;;;16.04;100.00
20793;BME280;10556;-33.662;151.094;2022-12-10T14:48:44;99153.81;;;16.10;100.00
20793;BME280;10556;-33.662;151.094;2022-12-10T14:53:47;99144.81;;;16.16;100.00
20793;BME280;10556;-33.662;151.094;2022-12-10T14:58:52;99152.16;;;16.09;100.00
20793;BME280;10556;-33.662;151.094;2022-12-10T15:04:01;99148.66;;;16.10;100.00
20793;BME280;10556;-33.662;151.094;2022-12-10T15:09:06;99139.78;;;16.14;100.00
20793;BME280;10556;-33.662;151.094;2022-12-10T15:14:17;99147.03;;;16.09;100.00
20793;BME280;10556;-33.662;151.094;2022-12-10T15:19:25;99145.47;;;16.07;100.00
20793;BME280;10556;-33.662;151.094;2022-12-10T15:24:37;99148.41;;;16.02;100.00
20793;BME280;10556;-33.662;151.094;2022-12-10T15:29:40;99133.81;;;16.03;100.00
20793;BME280;10556;-33.662;151.094;2022-12-10T15:34:46;99137.91;;;16.05;100.00
20793;BME280;10556;-33.662;151.094;2022-12-10T15:39:52;99127.72;;;16.04;100.00
20793;BME280;10556;-33.662;151.094;2022-12-10T15:44:58;99117.22;;;15.96;100.00
20793;BME280;10556;-33.662;151.094;2022-12-10T15:50:09;99128.69;;;15.92;100.00
20793;BME280;10556;-33.662;151.094;2022-12-10T15:55:12;99135.91;;;15.98;100.00
20793;BME280;10556;-33.662;151.094;2022-12-10T16:00:17;99124.44;;;16.02;100.00
20793;BME280;10556;-33.662;151.094;2022-12-10T16:05:23;99124.59;;;16.00;100.00
20793;BME280;10556;-33.662;151.094;2022-12-10T16:10:27;99129.00;;;15.98;100.00
20793;BME280;10556;-33.662;151.094;2022-12-10T16:15:31;99116.97;;;15.99;100.00
20793;BME280;10556;-33.662;151.094;2022-12-10T16:20:36;99100.88;;;15.97;100.00
20793;BME280;10556;-33.662;151.094;2022-12-10T16:25:39;99096.66;;;15.96;100.00
20793;BME280;10556;-33.662;151.094;2022-12-10T16:30:43;99085.34;;;15.87;100.00
20793;BME280;10556;-33.662;151.094;2022-12-10T16:35:49;99090.78;;;15.83;100.00
20793;BME280;10556;-33.662;151.094;2022-12-10T16:40:52;99085.78;;;15.81;100.00
20793;BME280;10556;-33.662;151.094;2022-12-10T16:45:55;99078.91;;;15.82;100.00
20793;BME280;10556;-33.662;151.094;2022-12-10T16:51:00;99077.38;;;15.79;100.00
20793;BME280;10556;-33.662;151.094;2022-12-10T16:56:12;99074.13;;;15.77;100.00
20793;BME280;10556;-33.662;151.094;2022-12-10T17:01:19;99058.81;;;15.76;100.00
20793;BME280;10556;-33.662;151.094;2022-12-10T17:06:24;99059.03;;;15.73;100.00
20793;BME280;10556;-33.662;151.094;2022-12-10T17:11:28;99059.03;;;15.73;100.00
20793;BME280;10556;-33.662;151.094;2022-12-10T17:16:33;99056.47;;;15.73;100.00
20793;BME280;10556;-33.662;151.094;2022-12-10T17:21:37;99052.63;;;15.67;100.00
20793;BME280;10556;-33.662;151.094;2022-12-10T17:26:42;99043.38;;;15.64;100.00
20793;BME280;10556;-33.662;151.094;2022-12-10T17:31:46;99054.59;;;15.52;100.00
20793;BME280;10556;-33.662;151.094;2022-12-10T17:36:51;99044.84;;;15.45;100.00
20793;BME280;10556;-33.662;151.094;2022-12-10T17:41:54;99048.03;;;15.48;100.00
20793;BME280;10556;-33.662;151.094;2022-12-10T17:46:56;99053.00;;;15.50;100.00
20793;BME280;10556;-33.662;151.094;2022-12-10T17:52:01;99048.69;;;15.50;100.00
20793;BME280;10556;-33.662;151.094;2022-12-10T17:57:07;99052.34;;;15.48;100.00
20793;BME280;10556;-33.662;151.094;2022-12-10T18:02:12;99051.09;;;15.53;100.00
20793;BME280;10556;-33.662;151.094;2022-12-10T18:07:17;99061.13;;;15.56;100.00
20793;BME280;10556;-33.662;151.094;2022-12-10T18:12:20;99058.22;;;15.61;100.00
20793;BME280;10556;-33.662;151.094;2022-12-10T18:17:22;99066.50;;;15.64;100.00
20793;BME280;10556;-33.662;151.094;2022-12-10T18:22:27;99055.28;;;15.54;100.00
20793;BME280;10556;-33.662;151.094;2022-12-10T18:27:30;99061.53;;;15.50;100.00
20793;BME280;10556;-33.662;151.094;2022-12-10T18:32:32;99062.06;;;15.55;100.00
20793;BME280;10556;-33.662;151.094;2022-12-10T18:37:37;99064.84;;;15.63;100.00
20793;BME280;10556;-33.662;151.094;2022-12-10T18:42:40;99059.97;;;15.72;100.00
20793;BME280;10556;-33.662;151.094;2022-12-10T18:47:42;99054.84;;;15.72;100.00
20793;BME280;10556;-33.662;151.094;2022-12-10T18:52:47;99046.56;;;15.68;100.00
20793;BME280;10556;-33.662;151.094;2022-12-10T18:57:50;99048.88;;;15.71;100.00
20793;BME280;10556;-33.662;151.094;2022-12-10T19:02:52;99050.03;;;15.78;100.00
20793;BME280;10556;-33.662;151.094;2022-12-10T19:07:57;99049.25;;;15.78;100.00
20793;BME280;10556;-33.662;151.094;2022-12-10T19:12:59;99054.25;;;15.79;100.00
20793;BME280;10556;-33.662;151.094;2022-12-10T19:18:02;99052.38;;;15.81;100.00
20793;BME280;10556;-33.662;151.094;2022-12-10T19:23:07;99056.09;;;15.88;100.00
20793;BME280;10556;-33.662;151.094;2022-12-10T19:28:10;99055.31;;;15.77;100.00
20793;BME280;10556;-33.662;151.094;2022-12-10T19:33:12;99059.50;;;15.66;100.00
20793;BME280;10556;-33.662;151.094;2022-12-10T19:38:17;99067.09;;;15.68;100.00
20793;BME280;10556;-33.662;151.094;2022-12-10T19:43:19;99076.06;;;15.74;100.00
20793;BME280;10556;-33.662;151.094;2022-12-10T19:48:22;99077.84;;;15.84;100.00
20793;BME280;10556;-33.662;151.094;2022-12-10T19:53:27;99078.19;;;15.91;100.00
20793;BME280;10556;-33.662;151.094;2022-12-10T19:58:29;99091.38;;;15.97;100.00
20793;BME280;10556;-33.662;151.094;2022-12-10T20:03:33;99083.09;;;16.05;100.00
20793;BME280;10556;-33.662;151.094;2022-12-10T20:08:37;99079.81;;;16.14;100.00
20793;BME280;10556;-33.662;151.094;2022-12-10T20:13:40;99074.91;;;16.22;100.00
20793;BME280;10556;-33.662;151.094;2022-12-10T20:18:42;99069.84;;;16.32;100.00
20793;BME280;10556;-33.662;151.094;2022-12-10T20:23:47;99059.66;;;16.41;100.00
20793;BME280;10556;-33.662;151.094;2022-12-10T20:28:49;99055.34;;;16.53;100.00
20793;BME280;10556;-33.662;151.094;2022-12-10T20:33:52;99050.97;;;16.65;100.00
20793;BME280;10556;-33.662;151.094;2022-12-10T20:38:57;99054.47;;;16.75;100.00
20793;BME280;10556;-33.662;151.094;2022-12-10T20:43:59;99057.00;;;16.86;100.00
20793;BME280;10556;-33.662;151.094;2022-12-10T20:49:03;99068.75;;;16.99;100.00
20793;BME280;10556;-33.662;151.094;2022-12-10T20:54:07;99058.41;;;17.11;100.00
20793;BME280;10556;-33.662;151.094;2022-12-10T20:59:12;99070.28;;;17.23;100.00
20793;BME280;10556;-33.662;151.094;2022-12-10T21:04:15;99075.00;;;17.38;100.00
20793;BME280;10556;-33.662;151.094;2022-12-10T21:09:19;99065.56;;;17.49;100.00
20793;BME280;10556;-33.662;151.094;2022-12-10T21:14:22;99065.38;;;17.61;100.00
20793;BME280;10556;-33.662;151.094;2022-12-10T21:19:25;99055.81;;;17.73;100.00
20793;BME280;10556;-33.662;151.094;2022-12-10T21:24:29;99062.78;;;17.82;100.00
20793;BME280;10556;-33.662;151.094;2022-12-10T21:29:32;99051.56;;;17.93;100.00
20793;BME280;10556;-33.662;151.094;2022-12-10T21:34:35;99041.84;;;18.06;100.00
20793;BME280;10556;-33.662;151.094;2022-12-10T21:39:39;99027.06;;;18.17;100.00
20793;BME280;10556;-33.662;151.094;2022-12-10T21:44:42;99026.53;;;18.33;100.00
20793;BME280;10556;-33.662;151.094;2022-12-10T21:49:44;99029.16;;;18.52;100.00
20793;BME280;10556;-33.662;151.094;2022-12-10T21:54:49;99020.91;;;18.68;100.00
20793;BME280;10556;-33.662;151.094;2022-12-10T21:59:51;99017.38;;;18.79;100.00
20793;BME280;10556;-33.662;151.094;2022-12-10T22:04:54;99012.75;;;18.92;100.00
20793;BME280;10556;-33.662;151.094;2022-12-10T22:09:58;98999.28;;;19.07;100.00
20793;BME280;10556;-33.662;151.094;2022-12-10T22:15:01;98998.00;;;19.21;100.00
20793;BME280;10556;-33.662;151.094;2022-12-10T22:20:05;98991.16;;;19.39;100.00
20793;BME280;10556;-33.662;151.094;2022-12-10T22:25:10;98991.63;;;19.62;100.00
20793;BME280;10556;-33.662;151.094;2022-12-10T22:30:13;98990.75;;;19.81;100.00
20793;BME280;10556;-33.662;151.094;2022-12-10T22:35:15;98991.25;;;19.94;100.00
20793;BME280;10556;-33.662;151.094;2022-12-10T22:40:20;98974.09;;;20.11;100.00
20793;BME280;10556;-33.662;151.094;2022-12-10T22:45:22;98971.97;;;20.33;100.00
20793;BME280;10556;-33.662;151.094;2022-12-10T22:50:25;98966.78;;;20.51;100.00
20793;BME280;10556;-33.662;151.094;2022-12-10T22:55:29;98964.97;;;20.69;100.00
20793;BME280;10556;-33.662;151.094;2022-12-10T23:00:32;98965.47;;;20.91;100.00
20793;BME280;10556;-33.662;151.094;2022-12-10T23:05:38;98957.63;;;21.08;100.00
20793;BME280;10556;-33.662;151.094;2022-12-10T23:10:42;98949.88;;;21.34;100.00
20793;BME280;10556;-33.662;151.094;2022-12-10T23:15:45;98942.72;;;21.62;100.00
20793;BME280;10556;-33.662;151.094;2022-12-10T23:20:48;98939.50;;;21.76;100.00
20793;BME280;10556;-33.662;151.094;2022-12-10T23:25:52;98933.28;;;21.95;100.00
20793;BME280;10556;-33.662;151.094;2022-12-10T23:30:56;98932.66;;;22.17;100.00
20793;BME280;10556;-33.662;151.094;2022-12-10T23:35:58;98930.56;;;22.37;100.00
20793;BME280;10556;-33.662;151.094;2022-12-10T23:41:05;98913.84;;;22.64;100.00
20793;BME280;10556;-33.662;151.094;2022-12-10T23:46:08;98911.59;;;22.77;100.00
20793;BME280;10556;-33.662;151.094;2022-12-10T23:51:11;98906.16;;;23.02;100.00
20793;BME280;10556;-33.662;151.094;2022-12-10T23:56:17;98891.13;;;23.29;100.00
